Time;durP1;ratioP1;P1;durP2;ratioP2;P2;SDS_P1;SDS_P2;PMS_P1;PMS_P2;Temp;Humidity;BMP_temperature;BMP_pressure;BME280_temperature;BME280_humidity;BME280_pressure;Samples;Min_cycle;Max_cycle;Signal;HPM_P1;HPM_P2
2022/01/01 00:00:08;;;;;;;10.50;5.80;;;12.10;99.90;;;;;;5007196;28;20447;-68
2022/01/01 00:02:36;;;;;;;11.97;8.77;;;12.00;99.90;;;;;;4994622;28;20557;-68
2022/01/01 00:05:04;;;;;;;11.80;7.97;;;12.10;99.90;;;;;;4999454;28;20458;-68
2022/01/01 00:07:30;;;;;;;9.20;6.73;;;12.00;99.90;;;;;;5012196;28;20512;-68
2022/01/01 00:09:57;;;;;;;16.73;7.93;;;12.00;99.90;;;;;;5010899;28;20530;-68
2022/01/01 00:12:24;;;;;;;7.23;5.57;;;12.00;99.90;;;;;;5024827;22;21253;-76
2022/01/01 00:14:50;;;;;;;9.43;6.37;;;12.00;99.90;;;;;;5015309;28;21008;-75
2022/01/01 00:17:17;;;;;;;8.33;6.93;;;12.00;99.90;;;;;;5017825;28;20503;-76
2022/01/01 00:19:45;;;;;;;11.83;7.60;;;11.90;99.90;;;;;;5016374;28;20449;-75
2022/01/01 00:22:11;;;;;;;9.83;5.83;;;11.90;99.90;;;;;;5018194;28;20478;-76
2022/01/01 00:24:38;;;;;;;9.70;5.57;;;11.90;99.90;;;;;;5012878;28;21004;-76
2022/01/01 00:27:05;;;;;;;8.20;6.37;;;11.90;99.90;;;;;;5012574;28;20449;-75
2022/01/01 00:29:31;;;;;;;8.50;5.80;;;11.80;99.90;;;;;;4994919;28;20447;-75
2022/01/01 00:31:58;;;;;;;12.23;5.93;;;11.80;99.90;;;;;;4996370;28;20458;-75
2022/01/01 00:34:25;;;;;;;10.23;5.93;;;11.80;99.90;;;;;;4994927;28;20459;-75
2022/01/01 00:36:53;;;;;;;8.20;6.43;;;11.80;99.90;;;;;;4995478;28;20505;-75
2022/01/01 00:39:20;;;;;;;9.87;6.10;;;11.80;99.90;;;;;;4994205;28;20451;-75
2022/01/01 00:41:47;;;;;;;7.40;5.10;;;11.90;99.90;;;;;;5002323;28;21026;-76
2022/01/01 00:44:14;;;;;;;16.33;6.50;;;11.80;99.90;;;;;;4995421;28;20479;-75
2022/01/01 00:46:40;;;;;;;8.90;5.20;;;11.80;99.90;;;;;;4994307;28;20517;-75
2022/01/01 00:49:07;;;;;;;6.47;5.20;;;11.80;99.90;;;;;;4994552;28;20803;-75
2022/01/01 00:51:34;;;;;;;7.87;5.80;;;11.80;99.90;;;;;;4994652;28;20561;-75
2022/01/01 00:54:02;;;;;;;8.77;5.77;;;11.80;99.90;;;;;;5006802;28;20473;-75
2022/01/01 00:56:28;;;;;;;6.67;5.20;;;11.80;99.90;;;;;;4993289;28;20458;-75
2022/01/01 00:58:55;;;;;;;10.67;6.00;;;11.80;99.90;;;;;;4993925;28;20451;-75
2022/01/01 01:01:22;;;;;;;7.20;4.90;;;11.80;99.90;;;;;;4995066;28;20463;-75
2022/01/01 01:03:48;;;;;;;15.43;6.27;;;11.80;99.90;;;;;;4999985;28;20475;-75
2022/01/01 01:06:15;;;;;;;10.60;5.40;;;11.80;99.90;;;;;;5009739;28;20446;-75
2022/01/01 01:08:42;;;;;;;9.10;5.43;;;11.80;99.90;;;;;;4993873;28;20455;-75
2022/01/01 01:11:10;;;;;;;7.73;5.33;;;11.80;99.90;;;;;;4993632;28;20545;-76
2022/01/01 01:13:39;;;;;;;7.67;5.47;;;11.90;99.90;;;;;;5005729;28;20482;-76
2022/01/01 01:16:06;;;;;;;6.30;5.00;;;11.80;99.90;;;;;;5009790;28;20955;-75
2022/01/01 01:18:33;;;;;;;13.70;6.10;;;11.80;99.90;;;;;;5005137;28;20455;-75
2022/01/01 01:21:00;;;;;;;6.03;4.83;;;11.80;99.90;;;;;;5005015;28;20454;-75
2022/01/01 01:23:26;;;;;;;13.57;6.13;;;11.80;99.90;;;;;;5011914;28;20475;-76
2022/01/01 01:25:55;;;;;;;11.50;5.60;;;11.80;99.90;;;;;;5011300;28;20482;-76
2022/01/01 01:28:23;;;;;;;9.80;5.43;;;11.80;99.90;;;;;;5013714;28;20958;-76
2022/01/01 01:30:50;;;;;;;10.70;5.10;;;11.70;99.90;;;;;;5008980;28;20482;-75
2022/01/01 01:33:16;;;;;;;7.77;5.33;;;11.70;99.90;;;;;;4994786;28;20478;-76
2022/01/01 01:35:43;;;;;;;11.10;5.60;;;11.70;99.90;;;;;;4994224;28;20862;-76
2022/01/01 01:38:10;;;;;;;7.50;5.67;;;11.70;99.90;;;;;;4994730;28;20890;-76
2022/01/01 01:40:36;;;;;;;9.17;5.57;;;11.70;99.90;;;;;;4994077;28;20447;-76
2022/01/01 01:43:09;;;;;;;8.03;5.57;;;11.70;99.90;;;;;;4997509;28;20854;-76
2022/01/01 01:45:37;;;;;;;12.00;6.50;;;11.70;99.90;;;;;;4993456;28;20470;-76
2022/01/01 01:48:05;;;;;;;7.17;5.60;;;11.70;99.90;;;;;;4996346;28;20451;-75
2022/01/01 01:50:33;;;;;;;8.30;5.20;;;11.70;99.90;;;;;;4997560;28;20837;-77
2022/01/01 01:53:01;;;;;;;11.20;5.60;;;11.70;99.90;;;;;;4992224;28;20529;-77
2022/01/01 01:55:27;;;;;;;6.87;4.83;;;11.60;99.90;;;;;;4992527;28;20459;-77
2022/01/01 01:57:55;;;;;;;6.37;4.90;;;11.60;99.90;;;;;;4997184;28;20906;-77
2022/01/01 02:00:48;;;;;;;7.20;4.90;;;11.60;99.90;;;;;;4992659;28;20498;-77
2022/01/01 02:03:16;;;;;;;10.83;5.43;;;11.60;99.90;;;;;;4994146;28;21092;-77
2022/01/01 02:05:46;;;;;;;14.43;5.10;;;11.60;99.90;;;;;;4993880;28;20866;-77
2022/01/01 02:08:15;;;;;;;8.67;4.87;;;11.60;99.90;;;;;;4992017;28;20459;-77
2022/01/01 02:10:42;;;;;;;8.83;5.13;;;11.60;99.90;;;;;;5000205;28;20532;-78
2022/01/01 02:13:14;;;;;;;8.20;4.70;;;11.50;99.90;;;;;;5003264;28;20483;-78
2022/01/01 02:15:48;;;;;;;6.83;5.00;;;11.50;99.90;;;;;;4992855;28;20542;-78
2022/01/01 02:18:16;;;;;;;7.70;4.87;;;11.50;99.90;;;;;;4993486;28;20490;-76
2022/01/01 02:20:49;;;;;;;6.93;5.03;;;11.50;99.90;;;;;;4992595;28;20466;-76
2022/01/01 02:23:16;;;;;;;10.57;5.30;;;11.50;99.90;;;;;;4993151;28;20475;-76
2022/01/01 02:25:43;;;;;;;7.70;4.90;;;11.50;99.90;;;;;;5006096;28;20458;-75
2022/01/01 02:28:11;;;;;;;9.70;4.77;;;11.50;99.90;;;;;;5011788;28;20453;-76
2022/01/01 02:30:38;;;;;;;5.80;4.77;;;11.50;99.90;;;;;;5002120;28;20995;-76
2022/01/01 02:33:05;;;;;;;7.33;4.80;;;11.50;99.90;;;;;;4999252;28;20922;-78
2022/01/01 02:35:32;;;;;;;9.07;5.10;;;11.50;99.90;;;;;;5013280;28;20513;-78
2022/01/01 02:38:00;;;;;;;7.70;5.60;;;11.50;99.90;;;;;;5007622;28;20454;-77
2022/01/01 02:40:27;;;;;;;7.73;5.30;;;11.50;99.90;;;;;;4996086;28;20447;-76
2022/01/01 02:42:54;;;;;;;7.40;6.00;;;11.50;99.90;;;;;;4992221;28;20845;-77
2022/01/01 02:45:21;;;;;;;9.73;4.90;;;11.50;99.90;;;;;;4992872;28;20539;-75
2022/01/01 02:47:48;;;;;;;9.30;5.63;;;11.50;99.90;;;;;;4993939;28;20463;-75
2022/01/01 02:50:15;;;;;;;6.33;4.60;;;11.50;99.90;;;;;;4991865;28;20459;-74
2022/01/01 02:52:42;;;;;;;15.87;5.30;;;11.50;99.90;;;;;;4994014;28;20648;-74
2022/01/01 02:55:10;;;;;;;7.97;4.57;;;11.50;99.90;;;;;;4991709;28;20455;-74
2022/01/01 02:57:37;;;;;;;9.80;4.93;;;11.40;99.90;;;;;;4991715;28;20460;-74
2022/01/01 03:00:05;;;;;;;10.10;5.30;;;11.40;99.90;;;;;;4991703;28;20455;-75
2022/01/01 03:02:32;;;;;;;12.60;5.83;;;11.40;99.90;;;;;;4993774;28;20482;-78
2022/01/01 03:04:59;;;;;;;7.33;5.10;;;11.40;99.90;;;;;;4991186;28;20490;-75
2022/01/01 03:07:25;;;;;;;7.77;4.30;;;11.40;99.90;;;;;;4991069;28;20459;-79
2022/01/01 03:09:52;;;;;;;7.30;4.97;;;11.50;99.90;;;;;;4996267;28;20455;-79
2022/01/01 03:12:20;;;;;;;8.30;5.07;;;11.50;99.90;;;;;;4995082;28;20494;-79
2022/01/01 03:14:47;;;;;;;13.23;5.03;;;11.50;99.90;;;;;;4995120;28;20447;-76
2022/01/01 03:17:14;;;;;;;9.97;5.27;;;11.50;99.90;;;;;;4993416;28;20489;-77
2022/01/01 03:19:40;;;;;;;5.10;4.60;;;11.40;99.90;;;;;;4991628;28;20459;-79
2022/01/01 03:22:07;;;;;;;10.67;5.30;;;11.40;99.90;;;;;;4994438;28;20513;-79
2022/01/01 03:24:34;;;;;;;10.10;4.87;;;11.40;99.90;;;;;;4997490;28;20451;-79
2022/01/01 03:27:02;;;;;;;9.50;5.00;;;11.40;99.90;;;;;;4992536;28;20878;-76
2022/01/01 03:29:32;;;;;;;9.00;5.03;;;11.40;99.90;;;;;;4999945;28;21205;-77
2022/01/01 03:31:59;;;;;;;6.80;4.97;;;11.40;99.90;;;;;;4997862;28;20998;-78
2022/01/01 03:34:26;;;;;;;10.10;5.27;;;11.40;99.90;;;;;;5009401;28;20974;-76
2022/01/01 03:36:52;;;;;;;7.50;5.17;;;11.40;99.90;;;;;;4998068;28;20455;-77
2022/01/01 03:39:22;;;;;;;9.90;4.60;;;11.40;99.90;;;;;;4997524;28;20439;-75
2022/01/01 03:41:48;;;;;;;11.77;4.80;;;11.40;99.90;;;;;;4997526;28;20451;-77
2022/01/01 03:44:15;;;;;;;11.53;5.23;;;11.40;99.90;;;;;;4998019;28;20892;-78
2022/01/01 03:46:43;;;;;;;6.60;4.97;;;11.40;99.90;;;;;;4998625;28;20520;-78
2022/01/01 03:49:10;;;;;;;10.33;4.20;;;11.50;99.90;;;;;;5016031;28;20454;-77
2022/01/01 03:51:36;;;;;;;9.43;5.27;;;11.40;99.90;;;;;;5010437;28;20482;-78
2022/01/01 03:54:03;;;;;;;6.30;5.10;;;11.50;99.90;;;;;;4997786;28;20561;-77
2022/01/01 03:56:30;;;;;;;16.70;5.60;;;11.50;99.90;;;;;;5009735;28;20616;-77
2022/01/01 03:58:56;;;;;;;7.83;4.80;;;11.40;99.90;;;;;;4998090;28;20459;-77
2022/01/01 04:01:23;;;;;;;9.00;5.40;;;11.40;99.90;;;;;;4997080;28;20447;-77
2022/01/01 04:03:51;;;;;;;9.80;5.10;;;11.40;99.90;;;;;;5002313;28;20474;-77
2022/01/01 04:06:18;;;;;;;9.50;4.63;;;11.40;99.90;;;;;;5006429;28;20455;-77
2022/01/01 04:08:44;;;;;;;6.63;4.73;;;11.40;99.90;;;;;;4998893;28;20459;-77
2022/01/01 04:11:11;;;;;;;6.97;5.17;;;11.40;99.90;;;;;;4998673;28;20482;-77
2022/01/01 04:13:38;;;;;;;8.33;4.47;;;11.40;99.90;;;;;;5009650;28;20486;-78
2022/01/01 04:16:06;;;;;;;6.80;5.03;;;11.40;99.90;;;;;;4998759;28;20509;-78
2022/01/01 04:18:38;;;;;;;12.03;4.93;;;11.30;99.90;;;;;;5014274;28;20466;-78
2022/01/01 04:21:07;;;;;;;11.53;5.23;;;11.30;99.90;;;;;;5014510;28;20796;-77
2022/01/01 04:23:34;;;;;;;7.40;4.57;;;11.30;99.90;;;;;;5010473;28;20541;-77
2022/01/01 04:26:01;;;;;;;12.73;4.50;;;11.30;99.90;;;;;;4997234;28;20463;-78
2022/01/01 04:28:27;;;;;;;8.97;4.93;;;11.40;99.90;;;;;;4998341;28;20466;-80
2022/01/01 04:30:54;;;;;;;6.50;5.00;;;11.30;99.90;;;;;;5000937;28;20517;-79
2022/01/01 04:33:21;;;;;;;8.20;5.17;;;11.40;99.90;;;;;;5011835;28;20487;-79
2022/01/01 04:35:47;;;;;;;7.27;6.03;;;11.30;99.90;;;;;;5005246;28;21045;-80
2022/01/01 04:38:32;;;;;;;11.53;5.83;;;11.30;99.90;;;;;;5013865;28;20450;-80
2022/01/01 04:40:59;;;;;;;12.07;5.40;;;11.30;99.90;;;;;;5001565;28;20475;-76
2022/01/01 04:43:25;;;;;;;8.67;5.50;;;11.20;99.90;;;;;;4996876;28;20474;-76
2022/01/01 04:45:52;;;;;;;11.43;6.50;;;11.20;99.90;;;;;;4994252;28;20459;-76
2022/01/01 04:48:19;;;;;;;11.83;5.80;;;11.20;99.90;;;;;;4994455;28;20451;-78
2022/01/01 04:50:45;;;;;;;11.27;6.33;;;11.20;99.90;;;;;;4994465;28;20859;-78
2022/01/01 04:53:16;;;;;;;10.00;6.40;;;11.20;99.90;;;;;;4985508;28;20479;-78
2022/01/01 04:55:44;;;;;;;13.17;6.17;;;11.20;99.90;;;;;;4997577;28;20879;-81
2022/01/01 04:58:11;;;;;;;8.83;6.73;;;11.20;99.90;;;;;;4977720;28;20519;-75
2022/01/01 05:00:37;;;;;;;9.60;6.10;;;11.20;99.90;;;;;;4991468;28;20455;-75
2022/01/01 05:03:04;;;;;;;12.53;6.30;;;11.20;99.90;;;;;;4995884;28;20483;-76
2022/01/01 05:05:31;;;;;;;13.03;6.37;;;11.20;99.90;;;;;;5012096;28;20864;-76
2022/01/01 05:07:58;;;;;;;11.57;6.30;;;11.20;99.90;;;;;;5006977;28;20466;-76
2022/01/01 05:10:25;;;;;;;16.70;6.60;;;11.20;99.90;;;;;;4998730;28;20458;-75
2022/01/01 05:12:53;;;;;;;11.37;6.23;;;11.20;99.90;;;;;;5012874;28;20585;-77
2022/01/01 05:15:20;;;;;;;11.93;6.07;;;11.20;99.90;;;;;;4993390;28;20855;-76
2022/01/01 05:17:46;;;;;;;11.20;7.17;;;11.10;99.90;;;;;;4995759;28;20525;-76
2022/01/01 05:20:13;;;;;;;11.43;6.70;;;11.10;99.90;;;;;;4993916;28;20808;-75
2022/01/01 05:22:40;;;;;;;11.63;7.40;;;11.00;99.90;;;;;;4994368;28;20593;-75
2022/01/01 05:25:07;;;;;;;8.93;6.70;;;10.90;99.90;;;;;;4993402;28;20451;-76
2022/01/01 05:27:35;;;;;;;10.90;7.00;;;10.90;99.90;;;;;;4996162;28;20943;-75
2022/01/01 05:30:05;;;;;;;15.57;7.10;;;10.90;99.90;;;;;;4993861;28;20462;-75
2022/01/01 05:32:32;;;;;;;11.97;6.80;;;10.90;99.90;;;;;;4994529;28;20559;-75
2022/01/01 05:34:59;;;;;;;11.97;6.97;;;10.90;99.90;;;;;;4998884;28;20450;-75
2022/01/01 05:37:25;;;;;;;13.20;7.70;;;10.90;99.90;;;;;;4993636;28;20459;-76
2022/01/01 05:39:52;;;;;;;16.70;7.87;;;10.90;99.90;;;;;;4993882;28;20459;-76
2022/01/01 05:42:19;;;;;;;14.13;7.60;;;10.90;99.90;;;;;;4992953;28;20987;-76
2022/01/01 05:44:45;;;;;;;10.60;7.27;;;10.90;99.90;;;;;;4993449;28;20521;-75
2022/01/01 05:47:13;;;;;;;14.17;7.60;;;10.90;99.90;;;;;;4993946;28;20491;-75
2022/01/01 05:49:40;;;;;;;18.13;7.70;;;10.90;99.90;;;;;;4999405;28;20462;-75
2022/01/01 05:52:08;;;;;;;13.50;7.43;;;10.90;99.90;;;;;;5004052;28;20874;-75
2022/01/01 05:54:35;;;;;;;17.10;8.53;;;10.90;99.90;;;;;;5013140;28;20462;-76
2022/01/01 05:57:02;;;;;;;13.97;8.50;;;10.90;99.90;;;;;;5006124;28;20511;-76
2022/01/01 05:59:28;;;;;;;15.37;8.20;;;10.90;99.90;;;;;;4994642;28;20559;-75
2022/01/01 06:01:55;;;;;;;12.17;8.27;;;10.80;99.90;;;;;;5003746;28;20450;-76
2022/01/01 06:04:23;;;;;;;16.63;9.10;;;10.80;99.90;;;;;;4980085;28;20531;-75
2022/01/01 06:06:50;;;;;;;20.90;9.10;;;10.80;99.90;;;;;;4973710;28;20452;-75
2022/01/01 06:09:16;;;;;;;16.33;8.20;;;10.80;99.90;;;;;;4988927;28;20880;-76
2022/01/01 06:11:43;;;;;;;18.43;9.37;;;10.80;99.90;;;;;;4993030;28;21003;-75
2022/01/01 06:14:10;;;;;;;17.53;7.90;;;10.80;99.90;;;;;;5043077;22;20494;-80
2022/01/01 06:16:36;;;;;;;13.73;8.37;;;10.80;99.90;;;;;;5036371;28;20461;-81
2022/01/01 06:19:03;;;;;;;12.37;8.07;;;10.80;99.90;;;;;;5038970;28;20457;-80
2022/01/01 06:21:31;;;;;;;12.50;7.57;;;10.80;99.90;;;;;;5020803;28;20450;-80
2022/01/01 06:23:58;;;;;;;16.23;9.13;;;10.80;99.90;;;;;;5008856;28;20475;-80
2022/01/01 06:26:24;;;;;;;13.23;7.87;;;10.80;99.90;;;;;;5018001;28;20454;-79
2022/01/01 06:28:51;;;;;;;16.00;8.63;;;10.70;99.90;;;;;;5003465;28;20459;-80
2022/01/01 06:31:18;;;;;;;16.17;7.73;;;10.70;99.90;;;;;;5015511;28;20974;-81
2022/01/01 06:33:44;;;;;;;15.77;8.03;;;10.80;99.90;;;;;;5021116;28;20556;-80
2022/01/01 06:36:12;;;;;;;12.30;7.90;;;10.80;99.90;;;;;;5021879;28;20450;-80
2022/01/01 06:38:42;;;;;;;16.97;7.70;;;10.80;99.90;;;;;;5019855;28;20510;-80
2022/01/01 06:41:08;;;;;;;14.53;8.10;;;10.80;99.90;;;;;;5020243;28;20608;-80
2022/01/01 06:43:35;;;;;;;19.60;9.03;;;10.80;99.90;;;;;;5019675;28;20478;-80
2022/01/01 06:46:02;;;;;;;13.40;8.17;;;10.80;99.90;;;;;;5014875;28;20909;-80
2022/01/01 06:48:28;;;;;;;17.50;9.00;;;10.80;99.90;;;;;;5000795;28;20452;-80
2022/01/01 06:50:55;;;;;;;13.87;8.27;;;10.80;99.90;;;;;;5003361;28;20454;-80
2022/01/01 06:53:22;;;;;;;17.10;8.57;;;10.80;99.90;;;;;;5015584;28;20509;-80
2022/01/01 06:55:50;;;;;;;14.60;8.50;;;10.80;99.90;;;;;;5019019;28;20477;-79
2022/01/01 06:58:17;;;;;;;13.13;8.30;;;10.80;99.90;;;;;;5019129;28;20834;-80
2022/01/01 07:00:43;;;;;;;14.83;8.10;;;10.80;99.90;;;;;;5016446;28;20879;-80
2022/01/01 07:03:10;;;;;;;16.90;8.20;;;10.80;99.90;;;;;;5011985;28;20493;-79
2022/01/01 07:05:37;;;;;;;13.87;8.83;;;10.80;99.90;;;;;;5018781;28;20450;-81
2022/01/01 07:08:04;;;;;;;15.87;8.33;;;10.80;99.90;;;;;;5018316;28;20876;-80
2022/01/01 07:10:30;;;;;;;12.40;8.67;;;10.80;99.90;;;;;;5019640;28;20464;-80
2022/01/01 07:12:58;;;;;;;12.03;5.90;;;10.70;99.90;;;;;;5016575;28;20494;-80
2022/01/01 07:15:25;;;;;;;10.90;6.20;;;10.70;99.90;;;;;;5004349;28;20466;-81
2022/01/01 07:17:52;;;;;;;13.10;7.90;;;10.80;99.90;;;;;;5018897;28;20450;-80
2022/01/01 07:20:18;;;;;;;13.27;7.20;;;10.70;99.90;;;;;;5020171;28;20450;-80
2022/01/01 07:22:46;;;;;;;9.43;5.97;;;10.70;99.90;;;;;;5001871;28;20538;-80
2022/01/01 07:25:14;;;;;;;12.03;6.23;;;10.70;99.90;;;;;;5017074;28;21032;-80
2022/01/01 07:27:42;;;;;;;12.30;6.23;;;10.80;99.90;;;;;;5015201;28;20450;-77
2022/01/01 07:30:11;;;;;;;9.57;6.40;;;10.80;99.90;;;;;;5010595;28;20454;-76
2022/01/01 07:32:41;;;;;;;8.80;5.83;;;10.80;99.90;;;;;;5010438;28;20546;-76
2022/01/01 07:35:09;;;;;;;16.03;6.07;;;10.80;99.90;;;;;;5001225;28;20455;-76
2022/01/01 07:37:36;;;;;;;11.77;6.00;;;10.90;99.90;;;;;;5011309;28;20450;-76
2022/01/01 07:40:03;;;;;;;9.53;4.87;;;10.90;99.90;;;;;;5009264;28;20508;-76
2022/01/01 07:42:30;;;;;;;13.10;5.27;;;10.90;99.90;;;;;;4998086;28;20971;-76
2022/01/01 07:44:57;;;;;;;8.53;4.67;;;11.00;99.90;;;;;;4991547;28;20463;-76
2022/01/01 07:47:25;;;;;;;5.67;4.80;;;11.10;99.90;;;;;;4997528;28;20460;-76
2022/01/01 07:49:51;;;;;;;9.73;4.80;;;11.10;99.90;;;;;;4992559;28;20876;-76
2022/01/01 07:52:18;;;;;;;12.43;5.30;;;11.10;99.90;;;;;;4999313;28;20589;-77
2022/01/01 07:54:45;;;;;;;9.33;5.90;;;11.10;99.90;;;;;;5011353;28;20771;-76
2022/01/01 07:57:11;;;;;;;6.63;5.33;;;11.10;99.90;;;;;;4999167;28;20450;-76
2022/01/01 07:59:38;;;;;;;7.47;4.87;;;11.10;99.90;;;;;;5010725;28;20458;-77
2022/01/01 08:02:05;;;;;;;8.90;4.90;;;11.10;99.90;;;;;;5009665;28;20450;-76
2022/01/01 08:04:33;;;;;;;9.90;5.10;;;11.10;99.90;;;;;;5006427;28;20521;-77
2022/01/01 08:07:01;;;;;;;7.50;4.97;;;11.10;99.90;;;;;;5009991;28;20873;-76
2022/01/01 08:09:28;;;;;;;7.40;4.93;;;11.20;99.90;;;;;;5009398;28;20454;-77
2022/01/01 08:11:55;;;;;;;12.00;5.30;;;11.20;99.90;;;;;;5001083;28;20513;-76
2022/01/01 08:14:22;;;;;;;7.57;4.37;;;11.20;99.90;;;;;;4992412;28;21242;-77
2022/01/01 08:16:58;;;;;;;15.93;5.07;;;11.20;99.90;;;;;;5003571;28;20958;-76
2022/01/01 08:19:25;;;;;;;11.50;4.50;;;11.20;99.90;;;;;;5012725;28;20458;-76
2022/01/01 08:21:54;;;;;;;14.20;6.20;;;11.30;99.90;;;;;;5013833;28;20509;-76
2022/01/01 08:24:22;;;;;;;6.70;4.67;;;11.30;99.90;;;;;;5014554;28;20473;-76
2022/01/01 08:26:49;;;;;;;7.47;5.73;;;11.30;99.90;;;;;;5013937;28;20458;-76
2022/01/01 08:29:16;;;;;;;6.57;4.37;;;11.30;99.90;;;;;;5014336;28;20458;-76
2022/01/01 08:31:43;;;;;;;11.30;4.97;;;11.30;99.90;;;;;;5013290;28;20512;-76
2022/01/01 08:34:10;;;;;;;12.63;5.20;;;11.30;99.90;;;;;;5013186;28;20496;-76
2022/01/01 08:36:37;;;;;;;8.37;4.67;;;11.40;99.90;;;;;;5014227;28;20447;-76
2022/01/01 08:39:06;;;;;;;18.50;4.80;;;11.40;99.90;;;;;;4995857;28;20447;-76
2022/01/01 08:41:33;;;;;;;17.73;5.30;;;11.40;99.90;;;;;;5008705;28;20464;-76
2022/01/01 08:44:00;;;;;;;11.10;5.30;;;11.40;99.90;;;;;;5012156;28;20520;-76
2022/01/01 08:46:27;;;;;;;7.50;4.70;;;11.50;99.90;;;;;;5013385;28;20950;-76
2022/01/01 08:48:53;;;;;;;8.47;4.27;;;11.50;99.90;;;;;;5013145;28;20966;-76
2022/01/01 08:51:21;;;;;;;7.73;5.10;;;11.50;99.90;;;;;;5013808;28;20446;-76
2022/01/01 08:53:49;;;;;;;7.97;4.73;;;11.50;99.90;;;;;;5013014;28;20540;-76
2022/01/01 08:56:18;;;;;;;13.20;5.30;;;11.50;99.90;;;;;;4994402;28;20479;-76
2022/01/01 08:58:46;;;;;;;11.43;5.13;;;11.50;99.90;;;;;;4998919;28;20455;-77
2022/01/01 09:01:13;;;;;;;14.70;5.37;;;11.50;99.90;;;;;;5012146;28;20530;-76
2022/01/01 09:03:41;;;;;;;11.20;5.00;;;11.50;99.90;;;;;;5006254;28;20478;-77
2022/01/01 09:06:08;;;;;;;11.30;4.53;;;11.50;99.90;;;;;;5012914;28;20462;-79
2022/01/01 09:08:36;;;;;;;8.47;4.90;;;11.60;99.90;;;;;;5012406;28;21025;-79
2022/01/01 09:11:03;;;;;;;10.33;4.70;;;11.60;99.90;;;;;;5009099;28;20533;-75
2022/01/01 09:13:32;;;;;;;8.83;6.43;;;11.60;99.90;;;;;;4993734;28;20494;-76
2022/01/01 09:15:59;;;;;;;6.90;4.93;;;11.60;99.90;;;;;;5002190;28;20462;-76
2022/01/01 09:18:26;;;;;;;10.83;5.23;;;11.70;99.90;;;;;;5001251;28;20454;-74
2022/01/01 09:20:53;;;;;;;6.40;4.93;;;11.70;99.90;;;;;;5012701;28;20467;-76
2022/01/01 09:23:20;;;;;;;13.23;5.00;;;11.70;99.90;;;;;;5011855;28;20474;-76
2022/01/01 09:25:47;;;;;;;7.60;4.17;;;11.80;99.90;;;;;;5009617;28;20504;-75
2022/01/01 09:28:14;;;;;;;9.53;4.70;;;11.80;99.90;;;;;;5012029;28;20966;-76
2022/01/01 09:30:42;;;;;;;9.77;4.30;;;11.80;99.90;;;;;;5010267;28;20527;-76
2022/01/01 09:33:10;;;;;;;7.33;4.90;;;11.80;99.90;;;;;;5010947;28;20457;-76
2022/01/01 09:35:36;;;;;;;8.27;4.80;;;11.80;99.90;;;;;;5015101;28;20504;-76
2022/01/01 09:38:03;;;;;;;7.93;4.40;;;11.90;99.90;;;;;;5011376;28;20461;-76
2022/01/01 09:40:30;;;;;;;10.83;4.77;;;11.90;99.90;;;;;;5002771;28;20516;-76
2022/01/01 09:42:59;;;;;;;9.93;4.73;;;11.90;99.90;;;;;;5009757;28;20544;-76
2022/01/01 09:45:27;;;;;;;8.80;4.73;;;12.00;99.90;;;;;;5004562;28;20496;-76
2022/01/01 09:47:55;;;;;;;7.47;5.37;;;12.00;99.90;;;;;;5003806;28;20464;-75
2022/01/01 09:50:22;;;;;;;6.10;4.40;;;11.90;99.90;;;;;;5005183;28;20955;-76
2022/01/01 09:52:49;;;;;;;8.30;4.40;;;12.00;99.90;;;;;;5011983;28;20453;-76
2022/01/01 09:55:15;;;;;;;4.80;3.30;;;12.00;99.90;;;;;;5006071;28;20948;-76
2022/01/01 09:57:42;;;;;;;7.83;3.97;;;12.00;99.90;;;;;;5007696;28;20914;-75
2022/01/01 10:00:10;;;;;;;11.93;4.07;;;12.10;99.90;;;;;;5011982;28;20504;-75
2022/01/01 10:02:37;;;;;;;12.10;4.07;;;12.10;99.90;;;;;;5011089;28;20470;-76
2022/01/01 10:05:07;;;;;;;12.00;3.70;;;12.10;99.90;;;;;;4994479;28;20459;-77
2022/01/01 10:07:33;;;;;;;4.30;3.90;;;12.10;99.90;;;;;;4998372;28;20786;-76
2022/01/01 10:10:18;;;;;;;10.60;5.30;;;12.10;99.90;;;;;;5006529;28;20459;-80
2022/01/01 10:12:45;;;;;;;10.50;5.73;;;12.10;99.90;;;;;;4996310;28;20578;-79
2022/01/01 10:15:12;;;;;;;13.13;6.30;;;12.10;99.90;;;;;;5006346;28;20473;-78
2022/01/01 10:17:39;;;;;;;4.90;3.87;;;12.00;99.90;;;;;;5011597;28;20458;-77
2022/01/01 10:20:08;;;;;;;9.80;5.43;;;12.00;99.90;;;;;;5011587;28;21000;-76
2022/01/01 10:22:36;;;;;;;10.03;5.77;;;11.90;99.90;;;;;;5011669;28;20521;-77
2022/01/01 10:27:54;;;;;;;8.77;4.50;;;12.00;99.90;;;;;;5015144;28;20453;-76
2022/01/01 10:30:23;;;;;;;8.53;4.50;;;12.00;99.90;;;;;;5011957;28;20934;-76
2022/01/01 10:33:09;;;;;;;4.00;3.57;;;12.10;99.90;;;;;;5000638;28;20970;-76
2022/01/01 10:35:43;;;;;;;5.37;3.50;;;12.10;99.90;;;;;;5008546;28;20938;-78
2022/01/01 10:38:15;;;;;;;5.30;3.70;;;12.20;99.90;;;;;;5011285;28;20458;-76
2022/01/01 10:40:42;;;;;;;7.70;3.90;;;12.30;99.90;;;;;;5010475;28;21001;-77
2022/01/01 10:43:10;;;;;;;5.13;3.23;;;12.30;99.90;;;;;;5009334;28;20601;-77
2022/01/01 10:45:38;;;;;;;4.40;3.30;;;12.30;99.90;;;;;;5003078;28;20450;-76
2022/01/01 10:48:25;;;;;;;5.90;3.80;;;12.30;99.90;;;;;;5007576;28;20499;-78
2022/01/01 10:50:55;;;;;;;7.30;3.87;;;12.40;99.90;;;;;;5011948;28;20464;-77
2022/01/01 10:53:24;;;;;;;5.80;3.60;;;12.50;99.90;;;;;;4995392;28;21061;-77
2022/01/01 10:55:52;;;;;;;5.33;3.40;;;12.50;99.90;;;;;;5010194;28;21008;-75
2022/01/01 10:58:21;;;;;;;4.37;3.60;;;12.50;99.90;;;;;;5007868;28;20454;-75
2022/01/01 11:00:48;;;;;;;6.03;4.30;;;12.50;99.90;;;;;;5007881;28;20451;-76
2022/01/01 11:03:17;;;;;;;22.20;11.27;;;12.50;99.90;;;;;;4995939;28;20474;-76
2022/01/01 11:05:45;;;;;;;18.97;11.23;;;12.50;99.90;;;;;;5011580;28;20458;-76
2022/01/01 11:08:14;;;;;;;26.73;13.10;;;12.30;99.90;;;;;;5011150;28;20429;-75
2022/01/01 11:10:42;;;;;;;20.80;13.53;;;12.20;99.90;;;;;;5011180;28;20454;-76
2022/01/01 11:13:10;;;;;;;22.70;13.13;;;12.00;99.90;;;;;;5010759;28;20850;-76
2022/01/01 11:15:37;;;;;;;25.83;16.00;;;11.90;99.90;;;;;;5010544;28;20545;-76
2022/01/01 11:18:04;;;;;;;26.17;14.80;;;11.70;99.90;;;;;;5008542;28;20509;-77
2022/01/01 11:20:34;;;;;;;30.70;16.70;;;11.60;99.90;;;;;;5011186;28;20451;-77
2022/01/01 11:23:05;;;;;;;30.97;16.17;;;11.60;99.90;;;;;;5005983;28;20509;-76
2022/01/01 11:25:34;;;;;;;31.07;16.97;;;11.50;99.90;;;;;;5001708;28;20561;-76
2022/01/01 11:28:02;;;;;;;31.00;17.47;;;11.50;99.90;;;;;;5005446;28;20461;-76
2022/01/01 11:30:30;;;;;;;33.47;17.90;;;11.40;99.90;;;;;;5006828;28;20459;-76
2022/01/01 11:33:02;;;;;;;34.17;18.83;;;11.40;99.90;;;;;;4992061;28;20808;-76
2022/01/01 11:35:31;;;;;;;31.27;17.90;;;11.30;99.90;;;;;;4990679;28;20474;-76
2022/01/01 11:37:59;;;;;;;36.70;19.00;;;11.30;99.90;;;;;;4995957;28;20546;-77
2022/01/01 11:40:27;;;;;;;37.03;19.70;;;11.20;99.90;;;;;;5009154;28;20461;-76
2022/01/01 11:42:55;;;;;;;40.10;21.20;;;11.20;99.90;;;;;;5009508;28;20482;-77
2022/01/01 11:45:44;;;;;;;41.53;20.70;;;11.10;99.90;;;;;;5010081;28;21096;-77
2022/01/01 11:48:30;;;;;;;41.47;21.00;;;11.10;99.90;;;;;;4991321;28;20455;-77
2022/01/01 11:51:18;;;;;;;40.40;20.40;;;11.10;99.90;;;;;;4998740;28;20451;-76
2022/01/01 11:54:05;;;;;;;40.67;21.60;;;11.10;99.90;;;;;;5011462;28;20573;-78
2022/01/01 11:57:05;;;;;;;41.60;21.03;;;11.20;99.90;;;;;;5013342;28;20453;-79
2022/01/01 11:59:41;;;;;;;41.10;20.87;;;11.20;99.90;;;;;;5003657;28;20456;-79
2022/01/01 12:02:29;;;;;;;40.90;20.90;;;11.20;99.90;;;;;;5011225;28;20958;-79
2022/01/01 12:05:11;;;;;;;43.27;21.53;;;11.20;99.90;;;;;;4999419;28;20478;-79
2022/01/01 12:07:59;;;;;;;45.40;20.57;;;11.30;99.90;;;;;;5002578;28;20538;-79
2022/01/01 12:10:35;;;;;;;42.50;22.20;;;11.30;99.90;;;;;;4998427;28;20470;-78
2022/01/01 12:13:03;;;;;;;41.20;21.00;;;11.40;99.90;;;;;;5038587;22;20541;-70
2022/01/01 12:15:37;;;;;;;37.33;19.67;;;11.40;99.90;;;;;;5013295;28;20485;-70
2022/01/01 12:18:06;;;;;;;43.33;22.50;;;11.30;99.90;;;;;;5014148;28;20449;-70
2022/01/01 12:20:36;;;;;;;39.10;20.43;;;11.40;99.90;;;;;;5014897;28;20458;-70
2022/01/01 12:23:06;;;;;;;42.07;22.07;;;11.50;99.90;;;;;;5012332;28;20458;-70
2022/01/01 12:25:34;;;;;;;36.20;20.40;;;11.60;99.90;;;;;;5002037;28;20450;-70
2022/01/01 12:28:04;;;;;;;44.50;20.30;;;11.60;99.90;;;;;;4994428;28;20528;-70
2022/01/01 12:30:38;;;;;;;35.00;19.77;;;11.70;99.90;;;;;;4994111;28;21065;-70
2022/01/01 12:33:07;;;;;;;36.67;20.53;;;11.80;99.90;;;;;;4991493;28;20482;-71
2022/01/01 12:35:46;;;;;;;37.00;19.90;;;11.80;99.90;;;;;;4996040;28;20486;-71
2022/01/01 12:38:15;;;;;;;41.37;20.77;;;11.90;99.90;;;;;;4999106;28;20453;-70
2022/01/01 12:40:59;;;;;;;42.33;20.80;;;12.00;99.90;;;;;;5011963;28;20447;-70
2022/01/01 12:43:27;;;;;;;31.13;18.80;;;12.00;99.90;;;;;;5011523;28;20537;-70
2022/01/01 12:45:57;;;;;;;30.70;18.13;;;12.10;99.90;;;;;;5011560;28;20447;-69
2022/01/01 12:48:25;;;;;;;33.70;18.73;;;12.20;99.90;;;;;;4981163;28;20450;-69